Time;durP1;ratioP1;P1;durP2;ratioP2;P2;SDS_P1;SDS_P2;PMS_P1;PMS_P2;Temp;Humidity;BMP_temperature;BMP_pressure;BME280_temperature;BME280_humidity;BME280_pressure;Samples;Min_cycle;Max_cycle;Signal;HPM_P1;HPM_P2
2022/03/23 05:02:40;;;;;;;17.33;11.17;;;2.80;99.90;;;;;;4954225;28;21339;-78
2022/03/23 05:05:08;;;;;;;14.70;9.80;;;2.80;99.90;;;;;;4958285;28;20482;-78
2022/03/23 05:07:35;;;;;;;15.53;10.60;;;2.80;99.90;;;;;;4956473;28;20812;-78
2022/03/23 05:10:03;;;;;;;14.10;9.63;;;2.80;99.90;;;;;;4957648;28;20468;-78
2022/03/23 05:12:30;;;;;;;12.47;9.67;;;2.70;99.90;;;;;;4948296;29;20477;-79
2022/03/23 05:14:59;;;;;;;14.60;10.43;;;2.70;99.90;;;;;;4949803;29;21041;-79
2022/03/23 05:17:26;;;;;;;15.47;11.10;;;2.70;99.90;;;;;;4947161;28;20460;-79
2022/03/23 05:19:54;;;;;;;17.40;11.00;;;2.70;99.90;;;;;;4949042;29;20453;-79
2022/03/23 05:22:21;;;;;;;17.50;10.83;;;2.70;99.90;;;;;;4950015;29;20481;-79
2022/03/23 05:24:48;;;;;;;18.50;12.87;;;2.70;99.90;;;;;;4949080;29;20457;-79
2022/03/23 05:27:15;;;;;;;19.13;12.67;;;2.70;99.90;;;;;;4949697;29;20464;-79
2022/03/23 05:29:43;;;;;;;16.07;11.33;;;2.70;99.90;;;;;;4949722;29;20457;-79
2022/03/23 05:32:16;;;;;;;20.10;12.37;;;2.70;99.90;;;;;;4949384;28;20470;-79
2022/03/23 05:34:43;;;;;;;21.70;11.40;;;2.70;99.90;;;;;;4950093;29;20465;-79
2022/03/23 05:37:11;;;;;;;22.07;12.83;;;2.70;99.90;;;;;;4950078;29;20458;-79
2022/03/23 05:39:38;;;;;;;24.77;12.47;;;2.70;99.90;;;;;;4951572;28;20453;-79
2022/03/23 05:42:48;;;;;;;17.17;12.10;;;2.70;99.90;;;;;;4954413;29;20520;-79
2022/03/23 05:45:16;;;;;;;19.27;11.40;;;2.70;99.90;;;;;;4952809;28;20525;-79
2022/03/23 05:47:43;;;;;;;19.00;12.10;;;2.70;99.90;;;;;;4953968;28;20460;-79
2022/03/23 05:50:11;;;;;;;23.30;13.23;;;2.60;99.90;;;;;;4952938;28;20453;-72
2022/03/23 05:52:41;;;;;;;18.20;11.43;;;2.60;99.90;;;;;;4949478;29;20528;-72
2022/03/23 05:55:09;;;;;;;16.93;10.40;;;2.50;99.90;;;;;;4951772;29;20497;-74
2022/03/23 05:57:37;;;;;;;23.40;10.87;;;2.60;99.90;;;;;;4951909;29;20487;-74
2022/03/23 06:00:05;;;;;;;18.17;10.97;;;2.60;99.90;;;;;;4951159;29;20553;-73
2022/03/23 06:02:32;;;;;;;18.50;11.73;;;2.60;99.90;;;;;;4951024;29;20516;-73
2022/03/23 06:04:59;;;;;;;18.10;12.57;;;2.60;99.90;;;;;;4951854;29;20456;-79
2022/03/23 06:07:25;;;;;;;20.83;11.83;;;2.60;99.90;;;;;;4951463;29;20913;-78
2022/03/23 06:09:54;;;;;;;26.73;12.20;;;2.60;99.90;;;;;;4951721;29;20520;-79
2022/03/23 06:12:21;;;;;;;20.57;12.03;;;2.60;99.90;;;;;;4950968;28;20513;-78
2022/03/23 06:14:48;;;;;;;18.40;11.80;;;2.60;99.90;;;;;;4951832;29;20536;-78
2022/03/23 06:17:15;;;;;;;19.53;12.00;;;2.70;99.90;;;;;;4951162;29;20465;-78
2022/03/23 06:19:42;;;;;;;19.37;12.50;;;2.60;99.90;;;;;;4951447;29;20541;-79
2022/03/23 06:22:09;;;;;;;18.83;12.13;;;2.50;99.90;;;;;;4951458;29;20481;-78
2022/03/23 06:24:36;;;;;;;22.93;12.90;;;2.60;99.90;;;;;;4951268;28;20461;-79
2022/03/23 06:27:05;;;;;;;16.67;10.90;;;2.60;99.90;;;;;;4951704;28;20486;-79
2022/03/23 06:29:31;;;;;;;23.17;11.87;;;2.60;99.90;;;;;;4954463;29;20536;-79
2022/03/23 06:31:58;;;;;;;19.53;12.40;;;2.60;99.90;;;;;;4954385;29;20472;-79
2022/03/23 06:34:25;;;;;;;18.93;11.50;;;2.70;99.90;;;;;;4953647;29;20983;-79
2022/03/23 06:36:52;;;;;;;18.97;12.33;;;2.70;99.90;;;;;;4952321;29;21164;-79
2022/03/23 06:39:19;;;;;;;15.77;11.83;;;2.80;99.90;;;;;;4955901;29;20461;-79
2022/03/23 06:41:46;;;;;;;17.90;12.67;;;2.90;99.90;;;;;;4953280;28;20480;-79
2022/03/23 06:44:15;;;;;;;17.63;12.60;;;2.90;99.90;;;;;;4953153;29;20491;-79
2022/03/23 06:46:43;;;;;;;18.40;13.00;;;2.90;99.90;;;;;;4954578;29;20518;-80
2022/03/23 06:49:10;;;;;;;23.30;12.53;;;3.00;99.90;;;;;;4954113;29;20461;-79
2022/03/23 06:51:36;;;;;;;19.37;11.80;;;3.00;99.90;;;;;;4953485;28;21151;-79
2022/03/23 06:54:03;;;;;;;21.43;11.33;;;3.10;99.90;;;;;;4955705;29;20458;-79
2022/03/23 06:56:30;;;;;;;18.27;11.23;;;3.20;99.90;;;;;;4954700;29;20504;-79
2022/03/23 06:58:58;;;;;;;17.50;11.50;;;3.20;99.90;;;;;;4952420;29;20470;-79
2022/03/23 07:01:26;;;;;;;18.10;12.10;;;3.30;99.90;;;;;;4951849;28;20507;-79
2022/03/23 07:03:53;;;;;;;16.63;12.07;;;3.30;99.90;;;;;;4949175;29;20465;-71
2022/03/23 07:06:20;;;;;;;16.83;11.63;;;3.30;99.90;;;;;;4947888;28;20536;-81
2022/03/23 07:11:32;;;;;;;18.63;13.20;;;3.30;99.90;;;;;;4947683;29;20461;-79
2022/03/23 07:13:59;;;;;;;17.90;13.97;;;3.40;99.90;;;;;;4949694;28;20497;-78
2022/03/23 07:16:28;;;;;;;22.63;12.87;;;3.40;99.90;;;;;;4949803;28;20504;-78
2022/03/23 07:18:55;;;;;;;20.67;12.50;;;3.50;99.90;;;;;;4951877;28;20464;-79
2022/03/23 07:21:21;;;;;;;17.73;12.50;;;3.50;99.90;;;;;;4951071;28;20575;-77
2022/03/23 07:23:48;;;;;;;18.33;12.27;;;3.60;99.90;;;;;;4950826;29;20950;-78
2022/03/23 07:26:16;;;;;;;21.40;11.57;;;3.70;99.90;;;;;;4949786;29;20545;-78
2022/03/23 07:28:43;;;;;;;19.50;13.47;;;3.80;99.90;;;;;;4949582;29;20810;-78
2022/03/23 07:31:10;;;;;;;19.00;13.60;;;4.00;99.90;;;;;;4949135;29;20593;-79
2022/03/23 07:33:38;;;;;;;17.50;12.93;;;4.20;99.90;;;;;;4950557;29;20477;-79
2022/03/23 07:36:05;;;;;;;17.27;11.77;;;4.30;99.90;;;;;;4951153;29;21036;-78
2022/03/23 07:38:32;;;;;;;16.83;11.60;;;4.40;99.90;;;;;;4951757;29;20449;-79
2022/03/23 07:40:59;;;;;;;14.30;11.60;;;4.50;99.90;;;;;;4948210;28;20485;-80
2022/03/23 07:43:26;;;;;;;15.80;11.60;;;4.70;99.90;;;;;;4942457;29;20535;-79
2022/03/23 07:45:53;;;;;;;16.10;11.60;;;4.80;99.90;;;;;;4945221;29;20467;-79
2022/03/23 07:48:20;;;;;;;17.17;11.67;;;5.00;99.90;;;;;;4949247;29;20464;-79
2022/03/23 07:50:48;;;;;;;17.83;11.33;;;5.20;99.90;;;;;;4950569;29;20473;-79
2022/03/23 07:53:15;;;;;;;13.43;11.27;;;5.20;99.90;;;;;;4951080;29;20460;-79
2022/03/23 07:55:42;;;;;;;14.37;10.87;;;5.40;99.90;;;;;;4952430;29;20488;-78
2022/03/23 07:58:09;;;;;;;16.90;10.73;;;5.50;99.90;;;;;;4950338;28;20474;-79
2022/03/23 08:00:38;;;;;;;15.03;10.50;;;5.60;99.90;;;;;;4951996;29;20490;-79
2022/03/23 08:03:05;;;;;;;16.23;11.13;;;5.90;99.90;;;;;;4946628;28;20489;-77
2022/03/23 08:05:32;;;;;;;18.50;10.40;;;6.00;99.90;;;;;;4945946;29;20461;-69
2022/03/23 08:08:00;;;;;;;15.43;10.50;;;6.20;99.90;;;;;;4944891;28;20946;-69
2022/03/23 08:10:27;;;;;;;24.40;12.03;;;6.40;99.90;;;;;;4943902;29;21426;-69
2022/03/23 08:12:55;;;;;;;19.13;11.13;;;6.80;99.90;;;;;;4947955;29;20472;-69
2022/03/23 08:15:24;;;;;;;17.43;11.40;;;7.10;99.90;;;;;;4948390;29;20459;-69
2022/03/23 08:17:51;;;;;;;19.80;11.73;;;7.40;99.90;;;;;;4946731;29;20469;-68
2022/03/23 08:20:36;;;;;;;18.30;12.10;;;7.60;99.90;;;;;;4948022;29;20464;-68
2022/03/23 08:23:06;;;;;;;16.33;11.27;;;7.60;99.90;;;;;;4946015;29;20456;-68
2022/03/23 08:25:34;;;;;;;21.63;11.80;;;7.80;99.90;;;;;;4946277;29;20572;-68
2022/03/23 08:28:01;;;;;;;16.47;10.40;;;8.00;99.90;;;;;;4947209;29;20461;-67
2022/03/23 08:30:28;;;;;;;15.47;11.00;;;8.10;99.90;;;;;;4947041;29;20528;-68
2022/03/23 08:32:55;;;;;;;16.70;11.40;;;8.20;99.90;;;;;;4947241;29;20465;-68
2022/03/23 08:35:23;;;;;;;14.17;10.40;;;8.70;99.90;;;;;;4947062;29;20453;-68
2022/03/23 08:37:50;;;;;;;14.10;11.47;;;9.00;99.90;;;;;;4946754;29;20493;-68
2022/03/23 08:40:19;;;;;;;17.53;11.13;;;9.30;99.90;;;;;;4946895;29;20485;-68
2022/03/23 08:42:46;;;;;;;15.57;11.53;;;9.60;99.90;;;;;;4946131;29;20449;-68
2022/03/23 08:45:15;;;;;;;23.30;12.73;;;9.80;99.80;;;;;;4947239;29;20465;-68
2022/03/23 08:47:42;;;;;;;17.87;13.03;;;10.00;98.90;;;;;;4946450;29;20528;-68
2022/03/23 08:50:11;;;;;;;19.90;12.30;;;10.30;98.60;;;;;;4947196;29;20488;-69
2022/03/23 08:52:39;;;;;;;25.50;12.67;;;10.40;96.60;;;;;;4947487;29;20453;-69
2022/03/23 08:55:09;;;;;;;17.17;12.10;;;10.80;98.30;;;;;;4946846;29;20469;-69
2022/03/23 08:57:38;;;;;;;17.23;12.87;;;11.00;95.70;;;;;;4946606;29;20552;-69
2022/03/23 09:00:06;;;;;;;20.80;14.40;;;11.00;95.70;;;;;;4947251;29;20461;-68
2022/03/23 09:02:33;;;;;;;19.03;13.57;;;11.10;94.20;;;;;;4946904;29;20509;-69
2022/03/23 09:05:00;;;;;;;21.23;14.00;;;11.20;93.70;;;;;;4947639;29;20679;-68
2022/03/23 09:07:27;;;;;;;20.87;13.30;;;11.30;93.10;;;;;;4947052;29;20468;-68
2022/03/23 09:09:54;;;;;;;17.57;13.60;;;11.30;92.90;;;;;;4947056;29;20466;-68
2022/03/23 09:12:21;;;;;;;20.93;14.63;;;11.40;92.40;;;;;;4946422;29;21013;-69
2022/03/23 09:14:49;;;;;;;21.70;14.93;;;11.40;92.40;;;;;;4947143;28;20450;-71
2022/03/23 09:17:16;;;;;;;20.23;13.30;;;11.60;92.40;;;;;;4946072;29;20501;-70
2022/03/23 09:19:43;;;;;;;23.03;13.30;;;11.80;92.20;;;;;;4946419;29;20453;-74
2022/03/23 09:22:10;;;;;;;17.33;13.00;;;11.90;90.70;;;;;;4941801;29;20478;-71
2022/03/23 09:24:36;;;;;;;18.57;13.70;;;12.10;89.60;;;;;;4945705;29;20984;-68
2022/03/23 09:27:04;;;;;;;22.30;15.20;;;12.20;88.00;;;;;;4947387;29;20460;-68
2022/03/23 09:29:31;;;;;;;18.80;12.83;;;12.40;88.60;;;;;;4946643;29;20548;-68
2022/03/23 09:32:00;;;;;;;19.30;13.50;;;12.60;89.10;;;;;;4947444;29;20477;-68
2022/03/23 09:34:27;;;;;;;18.73;13.87;;;12.70;90.00;;;;;;4942446;29;20472;-68
2022/03/23 09:39:38;;;;;;;18.27;12.03;;;12.90;86.20;;;;;;4947751;29;20830;-68
2022/03/23 09:42:07;;;;;;;15.97;12.13;;;13.40;86.20;;;;;;4947076;29;20490;-68
2022/03/23 09:44:34;;;;;;;17.53;11.83;;;14.00;84.60;;;;;;4948650;29;20586;-69
2022/03/23 09:47:05;;;;;;;19.77;13.67;;;14.30;84.30;;;;;;4945383;29;20461;-67
2022/03/23 09:49:32;;;;;;;17.30;12.57;;;14.60;80.00;;;;;;4946720;28;20544;-67
2022/03/23 09:52:01;;;;;;;18.80;13.30;;;14.50;80.80;;;;;;4946072;29;21225;-67
2022/03/23 09:54:28;;;;;;;20.20;12.60;;;14.70;80.50;;;;;;4945848;28;20508;-67
2022/03/23 09:56:55;;;;;;;20.00;12.70;;;14.90;81.50;;;;;;4945660;29;20481;-67
2022/03/23 09:59:22;;;;;;;17.63;13.13;;;15.00;79.30;;;;;;4945769;29;20977;-67
2022/03/23 10:02:39;;;;;;;20.37;14.30;;;15.00;77.30;;;;;;4946170;29;20491;-66
2022/03/23 10:05:54;;;;;;;15.20;12.13;;;15.10;76.80;;;;;;4942546;29;20460;-67
2022/03/23 10:09:01;;;;;;;17.63;12.03;;;15.10;76.20;;;;;;4944074;29;20454;-67
2022/03/23 10:12:23;;;;;;;15.00;12.27;;;15.30;73.90;;;;;;4945172;29;20469;-67
2022/03/23 10:15:36;;;;;;;14.10;11.80;;;15.50;75.40;;;;;;4866131;29;20951;-66
2022/03/23 10:18:41;;;;;;;17.03;11.57;;;16.00;71.90;;;;;;4945360;29;21048;-65
2022/03/23 10:21:10;;;;;;;19.03;12.47;;;16.20;75.70;;;;;;4945157;29;20504;-64
2022/03/23 10:23:36;;;;;;;15.90;12.43;;;16.20;75.40;;;;;;4940830;29;20500;-65
2022/03/23 10:26:12;;;;;;;15.90;11.97;;;16.40;73.20;;;;;;4943154;28;20458;-65
2022/03/23 10:28:39;;;;;;;14.97;12.57;;;16.40;72.20;;;;;;4949251;29;20452;-65
2022/03/23 10:31:15;;;;;;;17.60;12.87;;;16.50;72.70;;;;;;4948514;29;21407;-65
2022/03/23 10:33:42;;;;;;;18.80;13.30;;;16.80;75.60;;;;;;4948808;28;21166;-65
2022/03/23 10:36:11;;;;;;;16.40;12.93;;;17.20;69.40;;;;;;4948706;28;20457;-65
2022/03/23 10:38:40;;;;;;;17.90;12.47;;;17.30;70.90;;;;;;4948964;29;20485;-65
2022/03/23 10:41:11;;;;;;;13.93;11.87;;;18.10;69.00;;;;;;4947160;28;20556;-65
2022/03/23 10:43:40;;;;;;;13.97;11.83;;;18.30;69.70;;;;;;4948207;29;20452;-65
2022/03/23 10:46:08;;;;;;;15.17;12.33;;;18.80;66.50;;;;;;4947195;28;21357;-65
2022/03/23 10:48:35;;;;;;;15.40;12.17;;;18.70;66.20;;;;;;4945888;29;20505;-65
2022/03/23 10:51:02;;;;;;;15.30;12.20;;;18.80;64.80;;;;;;4946587;29;20474;-65
2022/03/23 10:53:38;;;;;;;13.00;10.83;;;19.20;66.40;;;;;;4947066;29;20458;-65
2022/03/23 10:56:06;;;;;;;11.57;10.40;;;20.00;66.20;;;;;;4947890;29;20464;-65
2022/03/23 11:02:00;;;;;;;13.53;11.70;;;20.40;60.70;;;;;;4945016;29;20997;-65
2022/03/23 11:04:29;;;;;;;14.83;10.90;;;20.20;61.90;;;;;;4943243;29;20466;-65
2022/03/23 11:06:58;;;;;;;13.93;11.60;;;20.10;63.00;;;;;;4946698;29;21008;-65
2022/03/23 11:18:06;;;;;;;15.33;12.30;;;19.60;61.30;;;;;;4942701;28;20477;-66
2022/03/23 11:20:45;;;;;;;16.43;12.77;;;19.40;62.00;;;;;;4945962;29;20481;-66
2022/03/23 11:23:24;;;;;;;17.30;12.53;;;19.60;66.20;;;;;;4948259;29;20453;-69
2022/03/23 11:25:54;;;;;;;20.63;13.00;;;19.80;65.60;;;;;;4947558;29;20461;-66
2022/03/23 11:28:21;;;;;;;17.63;12.33;;;19.80;64.80;;;;;;4948135;29;20846;-71
2022/03/23 11:30:49;;;;;;;17.73;12.70;;;19.80;65.10;;;;;;4947769;29;20859;-68
2022/03/23 11:33:21;;;;;;;15.10;13.07;;;20.00;67.70;;;;;;4948292;29;20465;-68
2022/03/23 11:35:49;;;;;;;15.43;12.20;;;20.30;62.60;;;;;;4947004;28;20460;-67
2022/03/23 11:38:17;;;;;;;18.00;12.27;;;20.60;65.60;;;;;;4946589;29;20485;-68
2022/03/23 11:40:45;;;;;;;13.37;11.60;;;20.70;60.80;;;;;;4947776;29;20525;-69
2022/03/23 11:43:14;;;;;;;15.37;11.00;;;20.80;63.60;;;;;;4948766;29;20470;-67
2022/03/23 11:45:43;;;;;;;15.00;11.60;;;20.90;63.10;;;;;;4947886;29;20480;-79
2022/03/23 11:48:23;;;;;;;12.90;11.40;;;21.20;63.20;;;;;;4949964;29;21209;-77
2022/03/23 11:51:08;;;;;;;14.70;10.53;;;21.30;59.80;;;;;;4942397;29;20476;-77
2022/03/23 11:53:46;;;;;;;15.63;11.43;;;21.20;59.20;;;;;;4932310;29;20472;-78
2022/03/23 11:56:22;;;;;;;15.67;11.20;;;21.20;59.30;;;;;;4931130;29;20808;-78
2022/03/23 11:58:52;;;;;;;13.60;10.40;;;21.30;58.40;;;;;;4944356;29;21387;-78
2022/03/23 12:01:20;;;;;;;18.60;11.60;;;21.40;58.70;;;;;;4950066;29;21064;-77
2022/03/23 12:03:53;;;;;;;15.50;11.80;;;21.60;58.10;;;;;;4950140;29;20556;-78
2022/03/23 12:06:22;;;;;;;14.73;11.57;;;21.60;59.20;;;;;;4947430;28;20466;-78
2022/03/23 12:08:57;;;;;;;15.73;11.90;;;21.50;58.00;;;;;;4950205;28;20446;-77
2022/03/23 12:11:38;;;;;;;20.07;13.60;;;21.20;58.10;;;;;;4946578;29;20512;-77
2022/03/23 12:14:08;;;;;;;19.10;14.47;;;21.10;61.40;;;;;;4948748;29;20457;-77
2022/03/23 12:17:06;;;;;;;21.07;15.40;;;21.30;62.30;;;;;;4942707;29;20485;-78
2022/03/23 12:19:52;;;;;;;21.60;14.47;;;21.30;62.10;;;;;;4939124;29;20458;-78
2022/03/23 12:22:30;;;;;;;17.77;14.30;;;21.40;63.60;;;;;;4945986;29;20565;-79
2022/03/23 12:25:05;;;;;;;16.63;13.33;;;21.50;61.10;;;;;;4945044;29;20966;-77
2022/03/23 12:27:46;;;;;;;15.57;13.07;;;21.60;61.80;;;;;;4941976;29;20454;-76
2022/03/23 12:30:18;;;;;;;19.40;12.40;;;21.60;60.30;;;;;;4947122;29;20864;-69
2022/03/23 12:32:44;;;;;;;16.87;13.87;;;21.60;60.80;;;;;;4945052;29;20453;-68
2022/03/23 12:35:11;;;;;;;20.83;13.70;;;22.00;59.80;;;;;;4945816;28;20460;-79
2022/03/23 12:37:40;;;;;;;17.80;13.53;;;21.90;59.70;;;;;;4951126;29;21359;-79
2022/03/23 12:40:08;;;;;;;16.90;13.73;;;21.70;60.70;;;;;;4950019;29;20453;-80
2022/03/23 12:42:40;;;;;;;23.00;13.70;;;21.70;60.70;;;;;;4949335;28;20492;-80
2022/03/23 12:45:11;;;;;;;14.30;12.20;;;21.80;59.70;;;;;;4949994;29;20458;-80
2022/03/23 12:47:50;;;;;;;16.87;12.57;;;22.00;59.90;;;;;;4948392;28;20458;-80
2022/03/23 12:58:33;;;;;;;13.23;11.87;;;22.20;58.00;;;;;;4945118;29;20477;-78
2022/03/23 13:01:11;;;;;;;16.97;11.47;;;22.50;57.10;;;;;;4946614;28;20515;-79
2022/03/23 13:04:01;;;;;;;19.33;11.67;;;22.60;57.70;;;;;;4946108;28;20890;-79
2022/03/23 13:06:37;;;;;;;13.33;10.50;;;22.60;58.90;;;;;;4945089;28;20841;-81
2022/03/23 13:09:10;;;;;;;11.57;9.90;;;22.90;57.10;;;;;;4950972;29;20453;-80
2022/03/23 13:11:37;;;;;;;14.10;11.90;;;23.10;58.10;;;;;;4951079;28;20997;-79
2022/03/23 13:14:04;;;;;;;12.87;10.60;;;23.30;57.20;;;;;;4948449;29;20488;-78
2022/03/23 13:16:32;;;;;;;11.87;10.43;;;23.30;55.90;;;;;;4947624;29;20466;-80
2022/03/23 13:19:02;;;;;;;16.20;10.23;;;23.40;57.20;;;;;;4948414;29;20489;-79
2022/03/23 13:21:31;;;;;;;13.57;10.30;;;23.70;55.60;;;;;;4948346;29;20491;-79
2022/03/23 13:24:03;;;;;;;11.20;9.77;;;23.30;53.40;;;;;;4948240;28;21194;-79
2022/03/23 13:26:31;;;;;;;11.03;9.87;;;23.20;53.50;;;;;;4947674;28;20511;-81
2022/03/23 13:28:59;;;;;;;13.93;11.17;;;23.00;53.90;;;;;;4948531;29;20980;-82
2022/03/23 13:31:31;;;;;;;14.50;10.00;;;23.00;54.50;;;;;;4941802;29;20849;-78
2022/03/23 13:34:01;;;;;;;16.67;10.70;;;23.20;54.80;;;;;;4942407;29;20461;-79
2022/03/23 13:36:30;;;;;;;17.90;11.53;;;23.20;53.40;;;;;;4936236;29;20490;-80
2022/03/23 13:38:57;;;;;;;14.17;10.57;;;23.20;53.10;;;;;;4942873;29;20496;-80
2022/03/23 13:44:11;;;;;;;13.63;10.17;;;23.30;52.90;;;;;;4948564;28;20833;-79
2022/03/23 13:46:38;;;;;;;12.90;9.07;;;23.30;52.20;;;;;;4945681;29;20468;-81
2022/03/23 13:49:10;;;;;;;12.53;8.10;;;23.40;51.50;;;;;;4949308;29;20497;-82
2022/03/23 13:51:43;;;;;;;8.97;8.07;;;23.50;52.70;;;;;;4947696;28;20469;-79
2022/03/23 13:54:11;;;;;;;12.83;8.60;;;23.50;49.50;;;;;;4950040;29;20468;-79
2022/03/23 13:56:42;;;;;;;9.80;8.33;;;23.50;49.40;;;;;;4946769;29;20473;-80
2022/03/23 13:59:12;;;;;;;9.90;8.20;;;23.40;48.70;;;;;;4947283;28;20504;-78
2022/03/23 14:01:43;;;;;;;8.37;7.30;;;23.30;49.60;;;;;;4955658;29;20488;-79
2022/03/23 14:04:12;;;;;;;9.63;8.63;;;23.50;50.90;;;;;;4948401;29;20457;-79
2022/03/23 14:06:44;;;;;;;9.10;7.43;;;23.60;49.20;;;;;;4952344;29;20453;-80
2022/03/23 14:09:12;;;;;;;8.20;7.40;;;23.60;50.80;;;;;;4954294;28;20984;-79
2022/03/23 14:11:52;;;;;;;8.73;7.83;;;23.70;48.30;;;;;;4954670;28;20479;-80
2022/03/23 14:14:22;;;;;;;12.50;8.17;;;23.80;49.90;;;;;;4952194;29;20461;-80
2022/03/23 14:17:08;;;;;;;10.40;7.63;;;23.80;48.50;;;;;;4952054;29;20473;-79
2022/03/23 14:19:36;;;;;;;8.77;7.30;;;23.80;47.30;;;;;;4948253;29;20533;-80
2022/03/23 14:22:07;;;;;;;10.17;7.50;;;23.90;48.40;;;;;;4948967;28;20469;-79
2022/03/23 14:24:37;;;;;;;11.63;8.33;;;24.00;48.50;;;;;;4949119;29;20461;-70
2022/03/23 14:27:24;;;;;;;14.33;8.00;;;23.70;48.10;;;;;;4948961;29;21101;-70
2022/03/23 14:30:15;;;;;;;8.50;7.70;;;23.70;48.20;;;;;;4948232;29;20457;-68
2022/03/23 14:32:45;;;;;;;11.60;8.70;;;23.70;46.90;;;;;;4947131;29;20461;-69
2022/03/23 14:35:17;;;;;;;10.17;8.87;;;23.70;47.00;;;;;;4949495;29;20469;-72
2022/03/23 14:37:47;;;;;;;11.33;8.60;;;23.50;47.80;;;;;;4947790;29;20493;-71
2022/03/23 14:40:31;;;;;;;13.40;9.00;;;23.30;46.70;;;;;;4946205;29;20461;-72
2022/03/23 14:42:59;;;;;;;10.53;9.00;;;23.40;47.40;;;;;;4950332;29;20839;-72
2022/03/23 14:45:29;;;;;;;9.13;8.13;;;23.30;48.30;;;;;;4950639;29;20457;-71
2022/03/23 14:47:57;;;;;;;13.37;8.77;;;23.20;48.00;;;;;;4943538;29;20835;-73
2022/03/23 14:50:24;;;;;;;9.70;8.67;;;23.20;48.10;;;;;;4948878;29;20453;-76
2022/03/23 14:52:53;;;;;;;10.40;8.70;;;23.20;47.90;;;;;;4949059;28;20447;-76
2022/03/23 14:55:21;;;;;;;10.27;8.80;;;23.30;49.50;;;;;;4948781;29;20890;-73
2022/03/23 14:57:48;;;;;;;10.77;8.57;;;23.40;48.30;;;;;;4948679;29;21005;-78
2022/03/23 15:00:16;;;;;;;11.57;8.70;;;23.30;48.70;;;;;;4949437;29;20594;-78
2022/03/23 15:02:43;;;;;;;11.03;9.07;;;23.30;48.60;;;;;;4946205;29;21289;-78
2022/03/23 15:13:15;;;;;;;11.30;9.07;;;23.40;48.50;;;;;;4945779;29;20552;-77
2022/03/23 15:13:27;;;;;;;12.03;9.00;;;23.00;48.30;;;;;;4944757;29;20508;-79
2022/03/23 15:15:54;;;;;;;9.43;8.43;;;22.80;47.60;;;;;;4946927;29;20458;-79
2022/03/23 15:18:20;;;;;;;10.60;9.50;;;22.90;49.40;;;;;;4947683;28;21016;-78
2022/03/23 15:20:47;;;;;;;9.60;8.50;;;23.10;48.70;;;;;;4949151;29;20481;-78
2022/03/23 15:23:16;;;;;;;10.77;9.17;;;23.20;48.30;;;;;;4948450;28;20450;-77
2022/03/23 15:25:43;;;;;;;9.47;8.57;;;23.30;48.00;;;;;;4947647;29;20458;-77
2022/03/23 15:28:09;;;;;;;9.50;7.93;;;23.30;48.90;;;;;;4947843;29;20450;-77
2022/03/23 15:30:36;;;;;;;13.20;8.83;;;23.40;49.50;;;;;;4948625;29;20998;-77
2022/03/23 15:33:03;;;;;;;9.60;8.53;;;23.50;48.20;;;;;;4948671;29;20468;-77
2022/03/23 15:35:32;;;;;;;12.13;7.37;;;23.60;48.70;;;;;;4948735;29;20468;-77
2022/03/23 15:37:59;;;;;;;15.97;8.53;;;23.60;49.00;;;;;;4947854;29;20874;-78
2022/03/23 15:40:27;;;;;;;10.10;9.10;;;23.80;48.80;;;;;;4948227;28;20465;-77
2022/03/23 15:43:08;;;;;;;24.43;10.47;;;24.00;48.50;;;;;;4945630;29;21248;-78
2022/03/23 15:45:36;;;;;;;17.13;9.60;;;24.30;50.10;;;;;;4948118;29;20462;-78
2022/03/23 15:48:03;;;;;;;40.67;13.03;;;24.60;50.10;;;;;;4946429;28;20446;-77
2022/03/23 15:50:32;;;;;;;13.40;8.40;;;24.70;48.50;;;;;;4947826;29;20524;-79
2022/03/23 15:52:59;;;;;;;11.13;8.50;;;24.90;48.90;;;;;;4947640;29;20461;-78
2022/03/23 15:55:28;;;;;;;10.43;8.00;;;25.10;48.90;;;;;;4947823;28;21012;-78
2022/03/23 15:57:55;;;;;;;8.97;7.83;;;25.20;48.80;;;;;;4946518;29;20466;-77
2022/03/23 16:00:21;;;;;;;9.33;8.20;;;25.30;48.40;;;;;;4947919;29;20946;-78
2022/03/23 16:02:50;;;;;;;10.23;8.30;;;25.40;48.30;;;;;;4947434;29;20509;-79
2022/03/23 16:05:17;;;;;;;9.23;7.63;;;25.30;47.80;;;;;;4948040;29;20480;-77
2022/03/23 16:07:44;;;;;;;9.00;7.97;;;25.40;47.30;;;;;;4947007;29;20489;-77
2022/03/23 16:10:11;;;;;;;11.37;7.90;;;25.50;47.40;;;;;;4947611;29;20587;-78
2022/03/23 16:12:41;;;;;;;9.10;8.13;;;25.50;47.50;;;;;;4947198;29;21015;-77
2022/03/23 16:15:08;;;;;;;10.00;8.13;;;25.50;46.60;;;;;;4947402;29;20470;-76
2022/03/23 16:17:35;;;;;;;25.30;9.13;;;25.30;46.70;;;;;;4946894;29;20461;-78
2022/03/23 16:20:05;;;;;;;14.00;7.80;;;25.20;47.20;;;;;;4947218;29;20489;-76
2022/03/23 16:22:32;;;;;;;9.67;8.10;;;25.00;47.10;;;;;;4946979;28;20481;-77
2022/03/23 16:24:59;;;;;;;9.77;7.93;;;24.80;47.80;;;;;;4947401;29;20481;-76
2022/03/23 16:27:26;;;;;;;8.07;7.27;;;24.70;48.30;;;;;;4946554;29;20449;-77
2022/03/23 16:29:54;;;;;;;12.37;8.00;;;24.40;46.30;;;;;;4944840;29;20463;-76
2022/03/23 16:32:21;;;;;;;9.90;8.00;;;24.20;46.60;;;;;;4941611;29;20855;-77
2022/03/23 16:34:48;;;;;;;7.67;6.87;;;24.10;46.90;;;;;;4947619;29;20453;-76
2022/03/23 16:37:15;;;;;;;9.37;7.60;;;24.00;46.80;;;;;;4946138;29;20504;-76
2022/03/23 16:39:43;;;;;;;10.20;7.77;;;23.80;47.00;;;;;;4947232;29;20501;-76
2022/03/23 16:42:10;;;;;;;15.00;7.47;;;23.60;47.60;;;;;;4947221;29;20572;-77
2022/03/23 16:44:37;;;;;;;9.60;6.83;;;23.30;47.50;;;;;;4946765;28;20450;-76
2022/03/23 16:47:06;;;;;;;9.17;7.80;;;23.10;45.70;;;;;;4946989;29;20484;-76
2022/03/23 16:49:34;;;;;;;10.73;7.43;;;22.90;45.70;;;;;;4947693;29;20595;-77
2022/03/23 16:52:01;;;;;;;15.00;7.87;;;22.80;46.70;;;;;;4947110;29;21095;-76
2022/03/23 16:54:29;;;;;;;50.17;9.23;;;22.70;48.00;;;;;;4947454;29;20500;-76
2022/03/23 16:56:56;;;;;;;9.70;6.90;;;22.50;48.00;;;;;;4946022;29;20461;-76
2022/03/23 16:59:24;;;;;;;8.70;7.07;;;22.40;47.90;;;;;;4946264;29;20497;-76
2022/03/23 17:01:51;;;;;;;33.70;8.37;;;22.20;47.90;;;;;;4946324;29;21029;-76
2022/03/23 17:12:34;;;;;;;14.07;7.90;;;21.50;48.80;;;;;;4945571;29;20834;-77
2022/03/23 17:15:03;;;;;;;8.90;7.00;;;21.30;48.50;;;;;;4946018;29;20449;-77
2022/03/23 17:17:33;;;;;;;9.10;8.10;;;21.20;48.90;;;;;;4946109;29;20517;-77
2022/03/23 17:20:02;;;;;;;18.80;8.87;;;21.00;48.70;;;;;;4945001;29;20489;-77
2022/03/23 17:22:32;;;;;;;82.50;13.00;;;20.90;48.90;;;;;;4945713;29;20469;-77
2022/03/23 17:25:00;;;;;;;15.93;7.97;;;20.80;49.20;;;;;;4946565;29;20458;-77
2022/03/23 17:27:33;;;;;;;17.67;7.70;;;20.60;49.40;;;;;;4945749;29;20468;-69
2022/03/23 17:30:00;;;;;;;20.67;8.27;;;20.40;49.50;;;;;;4946443;29;20453;-77
2022/03/23 17:32:28;;;;;;;38.20;9.02;;;20.30;50.20;;;;;;4945302;29;20456;-75
2022/03/23 17:34:55;;;;;;;33.90;9.00;;;20.10;50.00;;;;;;4945152;28;20682;-74
2022/03/23 17:37:24;;;;;;;20.30;8.33;;;20.10;50.50;;;;;;4945837;28;21206;-72
2022/03/23 17:39:51;;;;;;;22.77;8.60;;;20.00;50.50;;;;;;4945118;28;20529;-78
2022/03/23 17:42:18;;;;;;;11.47;7.73;;;19.80;50.10;;;;;;4947576;28;20520;-78
2022/03/23 17:44:45;;;;;;;9.70;7.17;;;19.60;49.80;;;;;;4944002;29;21359;-77
2022/03/23 17:47:14;;;;;;;8.20;6.77;;;19.40;50.10;;;;;;4945314;29;20458;-77
2022/03/23 17:49:44;;;;;;;9.53;7.47;;;19.30;49.70;;;;;;4945829;29;20460;-77
2022/03/23 17:52:11;;;;;;;9.17;6.93;;;19.20;50.80;;;;;;4946036;28;21102;-77
2022/03/23 17:54:40;;;;;;;9.33;6.87;;;19.00;50.50;;;;;;4946765;29;20468;-77
2022/03/23 17:57:07;;;;;;;9.53;7.50;;;18.90;50.30;;;;;;4945277;28;20476;-78
2022/03/23 17:59:35;;;;;;;10.87;7.93;;;18.80;50.70;;;;;;4945913;28;20489;-77
2022/03/23 18:02:02;;;;;;;9.00;7.40;;;18.60;50.40;;;;;;4946174;29;20539;-76
2022/03/23 18:04:28;;;;;;;13.40;7.60;;;18.50;51.10;;;;;;4946330;28;20460;-77
2022/03/23 18:06:55;;;;;;;12.53;7.20;;;18.40;51.60;;;;;;4948034;29;20508;-77
2022/03/23 18:09:22;;;;;;;8.90;6.83;;;18.30;51.50;;;;;;4948548;28;20455;-77
2022/03/23 18:11:50;;;;;;;10.00;7.37;;;18.10;51.40;;;;;;4949440;29;20483;-78
2022/03/23 18:14:17;;;;;;;8.90;7.17;;;18.10;51.20;;;;;;4949149;28;20454;-78
2022/03/23 18:16:46;;;;;;;7.47;6.60;;;17.90;51.20;;;;;;4948322;28;20958;-78
2022/03/23 18:19:13;;;;;;;7.73;6.57;;;17.80;51.50;;;;;;4948223;28;20489;-78
2022/03/23 18:21:40;;;;;;;8.63;7.00;;;17.70;51.40;;;;;;4948989;29;20469;-77
2022/03/23 18:24:07;;;;;;;7.57;6.63;;;17.60;51.70;;;;;;4948172;28;20860;-77
2022/03/23 18:26:35;;;;;;;8.50;7.33;;;17.50;52.00;;;;;;4948794;29;20457;-77
2022/03/23 18:29:03;;;;;;;14.10;9.00;;;17.40;51.90;;;;;;4947041;29;20532;-77
2022/03/23 18:31:30;;;;;;;8.67;7.77;;;17.30;50.70;;;;;;4946988;29;20477;-77
2022/03/23 18:33:57;;;;;;;9.97;7.93;;;17.20;52.30;;;;;;4947007;29;20858;-77